createdAt,value
2023-03-12T00:00:08.388Z,11.50
2023-03-12T00:03:30.050Z,12.00
2023-03-12T00:06:31.867Z,8.30
2023-03-12T00:09:38.445Z,13.30
2023-03-12T00:12:40.315Z,18.70
2023-03-12T00:15:42.005Z,16.50
2023-03-12T00:18:46.688Z,17.50
2023-03-12T00:21:48.388Z,17.30
2023-03-12T00:24:54.342Z,13.20
2023-03-12T00:27:56.064Z,13.00
2023-03-12T00:30:58.343Z,12.60
2023-03-12T00:34:01.694Z,13.20
2023-03-12T00:37:03.464Z,14.50
2023-03-12T00:40:08.061Z,13.30
2023-03-12T00:43:10.210Z,12.60
2023-03-12T00:46:12.243Z,16.60
2023-03-12T00:49:13.929Z,15.10
2023-03-12T00:52:15.714Z,13.20
2023-03-12T00:55:17.514Z,14.50
2023-03-12T00:58:19.303Z,17.10
2023-03-12T01:01:21.050Z,20.90
2023-03-12T01:04:23.017Z,17.90
2023-03-12T01:07:24.758Z,17.30
2023-03-12T01:10:26.408Z,11.20
2023-03-12T01:13:28.148Z,14.10
2023-03-12T01:16:30.062Z,12.40
2023-03-12T01:19:31.797Z,15.80
2023-03-12T01:22:34.453Z,15.90
2023-03-12T01:25:36.494Z,17.20
2023-03-12T01:31:39.911Z,13.40
2023-03-12T01:34:41.543Z,13.20
2023-03-12T01:37:43.208Z,13.10
2023-03-12T01:40:44.999Z,11.50
2023-03-12T01:43:46.798Z,13.80
2023-03-12T01:46:48.643Z,13.80
2023-03-12T01:49:55.574Z,14.30
2023-03-12T01:52:57.201Z,13.20
2023-03-12T01:56:01.055Z,16.30
2023-03-12T01:59:13.427Z,16.70
2023-03-12T02:02:15.916Z,14.50
2023-03-12T02:05:20.875Z,18.10
2023-03-12T02:08:24.140Z,16.30
2023-03-12T02:11:25.891Z,16.40
2023-03-12T02:14:27.912Z,14.80
2023-03-12T02:17:30.656Z,17.50
2023-03-12T02:20:56.463Z,16.60
2023-03-12T02:24:29.272Z,20.70
2023-03-12T02:30:35.698Z,15.40
2023-03-12T02:33:37.521Z,12.60
2023-03-12T02:36:39.349Z,14.70
2023-03-12T02:39:43.998Z,19.50
2023-03-12T02:42:46.046Z,15.30
2023-03-12T02:45:48.164Z,15.80
2023-03-12T02:48:50.814Z,17.80
2023-03-12T02:51:52.987Z,15.10
2023-03-12T02:54:54.646Z,14.00
2023-03-12T02:57:56.421Z,11.80
2023-03-12T03:00:58.551Z,13.10
2023-03-12T03:07:05.401Z,13.70
2023-03-12T03:10:08.113Z,14.70
2023-03-12T03:13:09.798Z,13.60
2023-03-12T03:16:12.845Z,15.10
2023-03-12T03:19:14.933Z,15.40
2023-03-12T03:22:17.602Z,16.10
2023-03-12T03:25:21.668Z,12.60
2023-03-12T03:28:25.918Z,13.00
2023-03-12T03:31:27.789Z,14.40
2023-03-12T03:34:29.638Z,12.90
2023-03-12T03:37:31.576Z,12.10
2023-03-12T03:40:33.514Z,12.30
2023-03-12T03:43:35.475Z,12.10
2023-03-12T03:46:37.171Z,10.50
2023-03-12T03:49:41.139Z,13.10
2023-03-12T03:52:43.122Z,16.00
2023-03-12T03:55:45.608Z,12.20
2023-03-12T03:58:47.702Z,10.70
2023-03-12T04:04:51.820Z,11.90
2023-03-12T04:07:55.291Z,9.70
2023-03-12T04:10:58.343Z,12.80
2023-03-12T04:14:00.052Z,11.00
2023-03-12T04:17:04.505Z,10.90
2023-03-12T04:23:11.132Z,9.70
2023-03-12T04:26:13.208Z,11.40
2023-03-12T04:29:15.492Z,11.40
2023-03-12T04:32:17.960Z,10.10
2023-03-12T04:35:19.870Z,10.80
2023-03-12T04:38:23.595Z,10.60
2023-03-12T04:41:25.571Z,12.80
2023-03-12T04:44:32.094Z,13.70
2023-03-12T04:47:34.091Z,11.10
2023-03-12T04:50:35.808Z,11.20
2023-03-12T04:53:39.848Z,10.40
2023-03-12T04:56:43.418Z,11.60
2023-03-12T04:59:45.542Z,11.60
2023-03-12T05:05:49.643Z,7.80
2023-03-12T05:11:53.661Z,8.60
2023-03-12T05:14:56.195Z,11.10
2023-03-12T05:17:58.098Z,11.60
2023-03-12T05:21:05.272Z,13.00
2023-03-12T05:24:08.590Z,9.10
2023-03-12T05:27:10.984Z,8.70
2023-03-12T05:30:13.510Z,8.30
2023-03-12T05:33:15.491Z,10.90
2023-03-12T05:36:17.796Z,11.50
2023-03-12T05:39:19.930Z,8.80
2023-03-12T05:45:25.779Z,8.70
2023-03-12T05:48:28.889Z,8.00
2023-03-12T05:51:30.818Z,9.60
2023-03-12T05:54:32.880Z,9.40
2023-03-12T05:57:34.678Z,6.00
2023-03-12T06:00:37.511Z,10.50
2023-03-12T06:03:39.889Z,10.30
2023-03-12T06:06:41.759Z,7.70
2023-03-12T06:09:43.513Z,8.60
2023-03-12T06:12:46.141Z,7.60
2023-03-12T06:15:48.778Z,8.70
2023-03-12T06:19:01.360Z,8.00
2023-03-12T06:22:03.628Z,9.00
2023-03-12T06:25:05.980Z,7.40
2023-03-12T06:28:07.749Z,9.60
2023-03-12T06:31:09.629Z,8.30
2023-03-12T06:34:11.438Z,5.80
2023-03-12T06:37:13.174Z,4.40
2023-03-12T06:40:15.006Z,6.90
2023-03-12T06:43:16.748Z,7.90
2023-03-12T06:46:24.875Z,5.90
2023-03-12T06:49:31.427Z,17.30
2023-03-12T06:52:34.072Z,11.40
2023-03-12T06:55:36.041Z,7.20
2023-03-12T06:58:38.140Z,7.40
2023-03-12T07:04:41.514Z,6.00
2023-03-12T07:07:43.344Z,9.10
2023-03-12T07:10:45.901Z,7.20
2023-03-12T07:13:47.629Z,7.90
2023-03-12T07:16:50.272Z,7.40
2023-03-12T07:19:52.165Z,7.70
2023-03-12T07:22:53.960Z,7.40
2023-03-12T07:25:55.706Z,9.00
2023-03-12T07:28:57.424Z,6.70
2023-03-12T07:31:59.205Z,6.10
2023-03-12T07:35:01.015Z,7.40
2023-03-12T07:38:03.339Z,7.90
2023-03-12T07:41:05.436Z,9.20
2023-03-12T07:44:07.484Z,7.70
2023-03-12T07:47:23.218Z,9.20
2023-03-12T07:50:25.844Z,7.70
2023-03-12T07:53:27.632Z,7.70
2023-03-12T07:56:29.378Z,8.50
2023-03-12T07:59:31.114Z,7.80
2023-03-12T08:02:33.680Z,7.20
2023-03-12T08:05:35.859Z,7.50
2023-03-12T08:08:41.107Z,6.60
2023-03-12T08:11:43.028Z,6.60
2023-03-12T08:14:46.617Z,6.50
2023-03-12T08:17:49.425Z,6.80
2023-03-12T08:20:52.369Z,7.30
2023-03-12T08:23:54.169Z,9.20
2023-03-12T08:26:56.256Z,8.70
2023-03-12T08:29:58.004Z,6.40
2023-03-12T08:32:59.787Z,8.30
2023-03-12T08:36:01.658Z,9.60
2023-03-12T08:39:03.953Z,8.30
2023-03-12T08:45:10.801Z,6.90
2023-03-12T08:48:12.541Z,6.00
2023-03-12T08:51:16.805Z,11.70
2023-03-12T08:54:20.224Z,8.40
2023-03-12T08:57:22.002Z,9.00
2023-03-12T09:00:24.453Z,12.60
2023-03-12T09:03:26.592Z,9.00
2023-03-12T09:06:32.816Z,7.10
2023-03-12T09:09:34.776Z,9.80
2023-03-12T09:12:45.561Z,8.70
2023-03-12T09:15:47.858Z,5.60
2023-03-12T09:21:51.351Z,7.70
2023-03-12T09:24:53.069Z,7.90
2023-03-12T09:27:54.812Z,7.80
2023-03-12T09:30:56.501Z,9.20
2023-03-12T09:33:58.255Z,9.40
2023-03-12T09:37:00.238Z,8.90
2023-03-12T09:40:06.941Z,5.40
2023-03-12T09:43:46.071Z,5.80
2023-03-12T09:46:53.007Z,5.70
2023-03-12T09:50:19.941Z,8.00
2023-03-12T09:53:34.089Z,7.10
2023-03-12T09:56:37.400Z,5.20
2023-03-12T09:59:39.978Z,5.50
2023-03-12T10:03:06.581Z,8.70
2023-03-12T10:06:24.949Z,5.10
2023-03-12T10:09:39.313Z,5.70
2023-03-12T10:13:18.764Z,20.90
2023-03-12T10:16:30.150Z,9.50
2023-03-12T10:19:50.202Z,8.00
2023-03-12T10:22:58.201Z,13.00
2023-03-12T10:26:09.664Z,7.50
2023-03-12T10:29:27.625Z,6.40
2023-03-12T10:32:38.315Z,4.40
2023-03-12T10:35:43.603Z,6.00
2023-03-12T10:38:48.829Z,12.40
2023-03-12T10:41:52.482Z,3.30
2023-03-12T10:45:00.822Z,9.30
2023-03-12T10:48:08.246Z,7.00
2023-03-12T10:51:12.406Z,7.60
2023-03-12T10:54:29.095Z,13.10
2023-03-12T10:57:41.226Z,5.90
2023-03-12T11:00:56.987Z,4.00
2023-03-12T11:04:23.376Z,2.60
2023-03-12T11:07:35.367Z,6.30
2023-03-12T11:10:47.610Z,5.00
2023-03-12T11:14:07.215Z,4.40
2023-03-12T11:17:20.746Z,7.10
2023-03-12T11:20:32.503Z,6.40
2023-03-12T11:23:36.189Z,7.70
2023-03-12T11:26:50.953Z,2.80
2023-03-12T11:29:53.819Z,8.00
2023-03-12T11:32:57.390Z,7.10
2023-03-12T11:36:17.426Z,5.30
2023-03-12T11:39:38.158Z,5.10
2023-03-12T11:42:57.899Z,7.50
2023-03-12T11:46:14.735Z,8.70
2023-03-12T11:49:40.979Z,7.60
2023-03-12T11:53:08.176Z,6.10
2023-03-12T11:56:21.190Z,4.90
2023-03-12T11:59:28.978Z,6.50
2023-03-12T12:02:55.183Z,5.90
2023-03-12T12:06:12.603Z,6.80
2023-03-12T12:09:33.274Z,4.80
2023-03-12T12:13:17.385Z,5.30
2023-03-12T12:16:29.183Z,4.80
2023-03-12T12:19:58.729Z,5.00
2023-03-12T12:23:17.021Z,7.80
2023-03-12T12:26:40.754Z,6.50
2023-03-12T12:29:52.756Z,6.10
2023-03-12T12:33:11.257Z,4.20
2023-03-12T12:36:13.881Z,5.40
2023-03-12T12:39:39.805Z,6.00
2023-03-12T12:43:03.596Z,5.40
2023-03-12T12:46:11.558Z,6.10
2023-03-12T12:49:25.400Z,7.30
2023-03-12T12:52:28.146Z,6.80
2023-03-12T12:55:41.186Z,11.40
2023-03-12T12:58:57.830Z,7.30
2023-03-12T13:02:02.368Z,7.70
2023-03-12T13:05:21.807Z,6.60
2023-03-12T13:08:38.733Z,5.10
2023-03-12T13:11:45.551Z,5.80
2023-03-12T13:14:49.116Z,6.00
2023-03-12T13:17:50.842Z,7.90
2023-03-12T13:20:52.521Z,7.40
2023-03-12T13:24:18.236Z,7.70
2023-03-12T13:27:44.652Z,9.90
2023-03-12T13:30:50.041Z,7.60
2023-03-12T13:33:55.948Z,7.50
2023-03-12T13:37:01.349Z,5.70
2023-03-12T13:40:28.751Z,5.20
2023-03-12T13:43:39.384Z,7.90
2023-03-12T13:46:43.619Z,8.40
2023-03-12T13:50:02.884Z,9.30
2023-03-12T13:53:14.453Z,6.70
2023-03-12T13:56:19.479Z,6.00
2023-03-12T13:59:24.117Z,7.50
2023-03-12T14:02:36.367Z,7.20
2023-03-12T14:06:10.403Z,7.30
2023-03-12T14:09:14.893Z,6.50
2023-03-12T14:12:52.349Z,5.40
2023-03-12T14:15:59.546Z,7.10
2023-03-12T14:19:04.505Z,6.60
2023-03-12T14:22:10.885Z,5.90
2023-03-12T14:25:14.489Z,8.40
2023-03-12T14:28:22.120Z,6.80
2023-03-12T14:31:25.311Z,4.80
2023-03-12T14:34:32.608Z,7.20
2023-03-12T14:37:43.462Z,5.60
2023-03-12T14:40:52.273Z,6.40
2023-03-12T14:43:54.295Z,9.40
2023-03-12T14:47:00.814Z,7.30
2023-03-12T14:50:03.306Z,7.50
2023-03-12T14:53:24.237Z,7.10
2023-03-12T14:56:32.695Z,6.00
2023-03-12T14:59:37.027Z,8.40
2023-03-12T15:02:39.640Z,5.60
2023-03-12T15:05:49.197Z,8.70
2023-03-12T15:08:51.054Z,9.00
2023-03-12T15:11:58.824Z,7.20
2023-03-12T15:15:06.653Z,5.70
2023-03-12T15:18:15.578Z,7.60
2023-03-12T15:21:17.472Z,5.90
2023-03-12T15:24:19.598Z,5.00
2023-03-12T15:27:24.129Z,8.40
2023-03-12T15:30:26.946Z,8.60
2023-03-12T15:33:28.652Z,6.30
2023-03-12T15:36:32.813Z,8.70
2023-03-12T15:39:37.299Z,8.20
2023-03-12T15:42:42.992Z,9.70
2023-03-12T15:45:45.426Z,12.60
2023-03-12T15:48:50.736Z,8.60
2023-03-12T15:52:06.825Z,10.10
2023-03-12T15:55:14.398Z,10.10
2023-03-12T15:58:27.886Z,9.70
2023-03-12T16:01:29.726Z,12.70
2023-03-12T16:04:31.481Z,13.80
2023-03-12T16:07:33.408Z,22.10
2023-03-12T16:10:36.386Z,12.40
2023-03-12T16:13:38.387Z,10.60
2023-03-12T16:16:40.136Z,8.10
2023-03-12T16:19:41.917Z,9.50
2023-03-12T16:22:43.946Z,7.50
2023-03-12T16:25:49.774Z,9.30
2023-03-12T16:28:51.483Z,8.40
2023-03-12T16:31:55.282Z,9.30
2023-03-12T16:34:57.111Z,11.10
2023-03-12T16:38:02.672Z,9.50
2023-03-12T16:41:04.515Z,8.10
2023-03-12T16:44:08.547Z,11.40
2023-03-12T16:47:13.533Z,10.00
2023-03-12T16:50:20.470Z,15.00
2023-03-12T16:53:22.728Z,15.30
2023-03-12T16:59:31.127Z,14.00
2023-03-12T17:02:34.522Z,13.60
2023-03-12T17:05:36.256Z,14.60
2023-03-12T17:08:37.975Z,11.30
2023-03-12T17:11:40.299Z,18.20
2023-03-12T17:17:43.866Z,15.60
2023-03-12T17:20:48.034Z,15.10
2023-03-12T17:23:50.447Z,18.90
2023-03-12T17:26:52.760Z,19.60
2023-03-12T17:33:08.610Z,19.60
2023-03-12T17:36:10.842Z,16.80
2023-03-12T17:42:15.013Z,17.50
2023-03-12T17:45:16.813Z,16.50
2023-03-12T17:48:22.778Z,17.40
2023-03-12T17:51:25.171Z,14.30
2023-03-12T17:54:26.899Z,19.30
2023-03-12T17:57:29.180Z,17.00
2023-03-12T18:03:35.315Z,21.10
2023-03-12T18:06:38.318Z,21.20
2023-03-12T18:09:40.122Z,21.70
2023-03-12T18:12:42.028Z,15.40
2023-03-12T18:15:51.100Z,18.00
2023-03-12T18:18:53.137Z,18.20
2023-03-12T18:21:54.853Z,26.20
2023-03-12T18:24:56.547Z,31.90
2023-03-12T18:27:58.315Z,23.00
2023-03-12T18:31:00.203Z,16.70
2023-03-12T18:34:02.028Z,31.70
2023-03-12T18:37:03.807Z,23.80
2023-03-12T18:40:07.041Z,22.30
2023-03-12T18:43:08.819Z,25.20
2023-03-12T18:46:12.306Z,25.40
2023-03-12T18:49:13.999Z,30.70
2023-03-12T18:52:15.721Z,34.80
2023-03-12T18:55:17.711Z,35.70
2023-03-12T18:58:19.767Z,33.40
2023-03-12T19:01:21.784Z,36.00
2023-03-12T19:04:25.075Z,38.00
2023-03-12T19:07:26.988Z,36.60
2023-03-12T19:10:28.772Z,32.50
2023-03-12T19:13:30.607Z,26.60
2023-03-12T19:16:32.354Z,24.90
2023-03-12T19:22:36.161Z,22.20
2023-03-12T19:25:37.951Z,23.70
2023-03-12T19:28:40.682Z,25.30
2023-03-12T19:31:42.741Z,26.50
2023-03-12T19:34:48.890Z,25.20
2023-03-12T19:37:51.950Z,28.80
2023-03-12T19:40:56.317Z,26.60
2023-03-12T19:43:58.075Z,27.40
2023-03-12T19:47:01.558Z,28.90
2023-03-12T19:50:03.601Z,25.50
2023-03-12T19:53:05.821Z,24.70
2023-03-12T19:59:09.464Z,24.30
2023-03-12T20:02:14.941Z,26.50
2023-03-12T20:05:16.934Z,28.40
2023-03-12T20:08:20.267Z,25.50
2023-03-12T20:11:22.233Z,24.70
2023-03-12T20:14:24.402Z,40.20
2023-03-12T20:17:26.125Z,25.40
2023-03-12T20:20:28.200Z,26.60
2023-03-12T20:23:30.648Z,23.10
2023-03-12T20:26:32.372Z,21.30
2023-03-12T20:29:34.233Z,22.80
2023-03-12T20:32:36.075Z,23.40
2023-03-12T20:35:37.951Z,18.80
2023-03-12T20:38:40.352Z,21.70
2023-03-12T20:44:43.671Z,22.80
2023-03-12T20:47:45.516Z,16.90
2023-03-12T20:50:50.507Z,18.10
2023-03-12T20:53:52.181Z,16.40
2023-03-12T20:56:53.965Z,20.80
2023-03-12T20:59:55.777Z,16.90
2023-03-12T21:02:57.614Z,14.40
2023-03-12T21:06:01.644Z,14.20
2023-03-12T21:09:03.416Z,14.20
2023-03-12T21:12:05.271Z,17.50
2023-03-12T21:15:09.188Z,14.70
2023-03-12T21:18:11.485Z,13.60
2023-03-12T21:21:13.468Z,16.10
2023-03-12T21:24:15.237Z,16.10
2023-03-12T21:27:16.922Z,15.60
2023-03-12T21:30:18.866Z,14.40
2023-03-12T21:33:21.189Z,17.00
2023-03-12T21:36:24.495Z,19.90
2023-03-12T21:39:26.538Z,16.30
2023-03-12T21:42:28.541Z,12.50
2023-03-12T21:45:30.976Z,15.60
2023-03-12T21:48:33.222Z,25.80
2023-03-12T21:54:36.777Z,16.90
2023-03-12T21:57:38.534Z,14.70
2023-03-12T22:00:40.236Z,18.70
2023-03-12T22:03:44.064Z,15.00
2023-03-12T22:06:45.912Z,16.50
2023-03-12T22:09:47.595Z,17.90
2023-03-12T22:12:49.280Z,14.50
2023-03-12T22:15:55.946Z,15.80
2023-03-12T22:18:58.190Z,12.70
2023-03-12T22:22:00.001Z,15.00
2023-03-12T22:25:01.822Z,15.10
2023-03-12T22:28:03.747Z,14.30
2023-03-12T22:31:07.709Z,13.20
2023-03-12T22:34:09.512Z,12.80
2023-03-12T22:37:11.236Z,13.90
2023-03-12T22:40:13.355Z,11.70
2023-03-12T22:43:15.693Z,10.60
2023-03-12T22:52:21.526Z,8.70
2023-03-12T22:55:23.497Z,7.50
2023-03-12T22:58:25.939Z,8.30
2023-03-12T23:01:27.694Z,7.50
2023-03-12T23:04:29.491Z,8.50
2023-03-12T23:07:31.636Z,7.80
2023-03-12T23:10:33.345Z,7.60
2023-03-12T23:13:37.771Z,8.90
2023-03-12T23:16:39.528Z,8.10
2023-03-12T23:19:44.120Z,9.00
2023-03-12T23:22:45.811Z,8.90
2023-03-12T23:25:57.927Z,5.70
2023-03-12T23:29:00.358Z,8.40
2023-03-12T23:32:02.303Z,9.20
2023-03-12T23:35:04.474Z,8.00
2023-03-12T23:38:06.297Z,9.10
2023-03-12T23:41:18.253Z,6.40
2023-03-12T23:44:19.998Z,12.40
2023-03-12T23:47:21.978Z,6.30
2023-03-12T23:50:23.774Z,7.30
2023-03-12T23:53:25.489Z,8.80
2023-03-12T23:56:32.994Z,6.90
2023-03-12T23:59:34.705Z,8.60
